This is the latest recevied weather packets stored in our database for station/object DH0BRO-3. If no packets are shown the sender has not sent any weather packets the latest 10 day(s).
| Time | Temp. | Humidity | Pressure | Rain* | Wind** | Luminosity | Snow |
|---|---|---|---|---|---|---|---|
| 1777674028 | 11.67° C | 74% | 1025.7 hPa | 0 mm | - | - | - |
| 1777669335 | 13.33° C | 66% | 1025.9 hPa | 0 mm | - | - | - |
| 1777668433 | 13.89° C | 65% | 1025.9 hPa | 0 mm | - | - | - |
| 1777662416 | 18.33° C | 53% | 1026.1 hPa | 0 mm | - | - | - |
| 1777656092 | 23.33° C | 41% | 1026.1 hPa | 0 mm | - | - | - |
| 1777649771 | 23.33° C | 37% | 1027 hPa | 0 mm | - | - | - |
| 1777643449 | 23.33° C | 35% | 1027.9 hPa | 0 mm | - | - | - |
| 1777641644 | 23.89° C | 35% | 1028.3 hPa | 0 mm | - | - | - |
| 1777635343 | 22.22° C | 43% | 1029.4 hPa | 0 mm | - | - | - |
| 1777633518 | 21.67° C | 43% | 1029.7 hPa | 0 mm | - | - | - |
| 1777626137 | 18.33° C | 51% | 1030.5 hPa | 0 mm | - | - | - |
| 1777622523 | 15° C | 61% | 1030.6 hPa | 0 mm | - | - | - |
| 1777621922 | 14.44° C | 66% | 1030.5 hPa | 0 mm | - | - | - |
| 1777615600 | 7.78° C | 90% | 1030.4 hPa | 0 mm | - | - | - |
| 1777600249 | 6.11° C | 82% | 1030 hPa | 0 mm | - | - | - |
| 1777595734 | 7.22° C | 80% | 1030 hPa | 0 mm | - | - | - |
| 1777591219 | 8.33° C | 77% | 1030.2 hPa | 0 mm | - | - | - |
| 1777585645 | 10° C | 72% | 1030.2 hPa | 0 mm | - | - | - |
| 1777582033 | 12.22° C | 66% | 1029.9 hPa | 0 mm | - | - | - |
| 1777579323 | 13.89° C | 60% | 1029.9 hPa | 0 mm | - | - | - |
| 1777569691 | 20.56° C | 43% | 1029.6 hPa | 0 mm | - | - | - |
| 1777562467 | 20° C | 42% | 1030.1 hPa | 0 mm | - | - | - |
| 1777555243 | 19.44° C | 42% | 1031.2 hPa | 0 mm | - | - | - |
| 1777544428 | 17.22° C | 42% | 1032.9 hPa | 0 mm | - | - | - |
| 1777543504 | 16.67° C | 43% | 1033 hPa | 0 mm | - | - | - |
* Rain latest hour (hover to see other rain measurements)
** Current wind speed in m/s (hover to see current wind gust speed)